Time;durP1;ratioP1;P1;durP2;ratioP2;P2;SDS_P1;SDS_P2;PMS_P1;PMS_P2;Temp;Humidity;BMP_temperature;BMP_pressure;BME280_temperature;BME280_humidity;BME280_pressure;Samples;Min_cycle;Max_cycle;Signal;HPM_P1;HPM_P2
2024/01/13 09:53:27;;;;;;;;;4.67;4.67;;;;;14.60;43.54;102574.03;2027323;27;2745130;-75
2024/01/13 09:54:46;;;;;;;;;4.50;4.50;;;;;14.89;43.21;102573.50;2036638;27;2748168;-76
2024/01/13 09:56:03;;;;;;;;;4.00;4.00;;;;;15.19;42.46;102576.31;2008537;27;2748173;-76
2024/01/13 09:57:17;;;;;;;;;4.00;4.00;;;;;15.52;42.34;102584.41;2058993;27;2740227;-75
2024/01/13 09:58:31;;;;;;;;;3.67;3.67;;;;;15.82;41.72;102585.44;2035549;27;2746566;-74
2024/01/13 09:59:45;;;;;;;;;2.00;2.00;;;;;16.10;41.50;102589.19;2039896;27;2734716;-75
2024/01/13 10:01:00;;;;;;;;;3.67;3.67;;;;;16.37;41.35;102584.03;2035446;27;2750258;-75
2024/01/13 10:02:14;;;;;;;;;4.00;4.00;;;;;16.61;40.88;102579.81;2034437;27;2746110;-75
2024/01/13 10:03:27;;;;;;;;;2.83;2.83;;;;;16.85;40.43;102585.28;2035606;27;2745108;-75
2024/01/13 10:04:40;;;;;;;;;4.00;4.00;;;;;17.07;40.53;102581.09;2029147;27;2744014;-76
2024/01/13 10:05:52;;;;;;;;;3.00;3.00;;;;;17.27;40.23;102576.97;2005800;27;2754452;-75
2024/01/13 10:07:07;;;;;;;;;3.83;3.83;;;;;17.46;40.16;102576.41;2056056;27;2740994;-75
2024/01/13 10:08:30;;;;;;;;;3.33;3.33;;;;;17.65;39.92;102579.31;2034893;27;2744004;-75
2024/01/13 10:09:40;;;;;;;;;3.00;3.00;;;;;17.82;39.40;102588.47;2003544;27;2747257;-75
2024/01/13 10:10:51;;;;;;;;;3.00;3.00;;;;;17.96;39.02;102585.34;2035637;27;2754438;-74
2024/01/13 10:12:07;;;;;;;;;3.00;3.00;;;;;18.09;38.78;102585.78;2057703;27;2746107;-74
2024/01/13 10:13:20;;;;;;;;;5.00;5.00;;;;;18.24;39.04;102591.50;2043909;27;2742954;-74
2024/01/13 10:14:30;;;;;;;;;2.00;2.00;;;;;18.34;39.09;102582.25;2009632;27;2753409;-75
2024/01/13 10:15:41;;;;;;;;;2.33;2.33;;;;;18.46;38.36;102580.94;2051083;27;2754530;-75
2024/01/13 10:16:52;;;;;;;;;1.67;1.67;;;;;18.55;38.19;102571.72;2058143;27;2742454;-74
2024/01/13 10:18:03;;;;;;;;;4.00;4.00;;;;;18.64;38.39;102571.38;2010841;27;2754447;-75
2024/01/13 10:19:15;;;;;;;;;3.00;3.00;;;;;18.75;38.40;102567.44;2057334;27;2754463;-74
2024/01/13 10:20:29;;;;;;;;;2.50;2.50;;;;;18.83;38.18;102576.00;2057687;27;2749218;-74
2024/01/13 12:08:18;;;;;;;;;5.33;5.33;;;;;16.38;40.47;102403.53;2015275;27;2748182;-72
2024/01/13 12:09:30;;;;;;;;;4.00;4.00;;;;;16.56;39.97;102395.91;2021099;27;2747162;-76
2024/01/13 12:10:45;;;;;;;;;4.67;4.67;;;;;16.75;39.54;102393.53;2021477;27;2748208;-74
2024/01/13 12:12:00;;;;;;;;;3.33;3.17;;;;;16.98;39.31;102394.56;2049963;27;2739240;-73
2024/01/13 12:13:17;;;;;;;;;3.67;3.67;;;;;17.20;39.14;102385.00;2027834;28;2737756;-74
2024/01/13 12:14:32;;;;;;;;;2.83;2.83;;;;;17.39;39.14;102385.22;2026094;28;2749050;-75
2024/01/13 12:15:46;;;;;;;;;3.00;3.00;;;;;17.58;38.93;102384.53;2026794;28;2739864;-73
2024/01/13 12:17:04;;;;;;;;;3.67;3.67;;;;;17.76;39.02;102380.34;2027202;28;2748194;-74
2024/01/13 12:18:25;;;;;;;;;2.00;2.00;;;;;17.93;38.61;102389.47;1996926;28;2746107;-73
2024/01/13 12:19:37;;;;;;;;;3.00;3.00;;;;;18.06;38.13;102389.88;2020955;28;2744054;-73
2024/01/13 12:20:58;;;;;;;;;3.00;3.00;;;;;18.22;37.86;102394.66;2051003;27;2742421;-73
2024/01/13 12:22:09;;;;;;;;;4.00;4.00;;;;;18.33;38.34;102386.22;2001717;27;2754455;-72
2024/01/13 12:23:23;;;;;;;;;1.00;1.00;;;;;18.45;38.10;102382.19;2044290;27;2735670;-72
2024/01/13 12:24:36;;;;;;;;;2.50;2.50;;;;;18.55;37.99;102380.91;2027373;27;2746191;-74
2024/01/13 12:25:53;;;;;;;;;2.17;2.17;;;;;18.64;37.80;102379.63;2027162;28;2729436;-75
2024/01/13 12:27:04;;;;;;;;;3.67;3.67;;;;;18.74;37.15;102376.63;2001478;28;2754452;-75
2024/01/13 12:28:16;;;;;;;;;2.80;2.80;;;;;18.83;37.22;102364.69;2045605;27;2746102;-75
2024/01/13 12:29:30;;;;;;;;;2.33;2.33;;;;;18.91;37.00;102369.72;2019578;28;2747250;-75
2024/01/13 12:30:49;;;;;;;;;1.67;1.67;;;;;18.99;37.08;102370.22;2059077;27;2736739;-75
2024/01/13 12:32:04;;;;;;;;;2.17;2.17;;;;;19.06;37.21;102369.03;2057888;27;2738304;-75
2024/01/13 12:33:14;;;;;;;;;4.00;4.00;;;;;19.12;37.04;102367.91;2009071;27;2750265;-75
2024/01/13 12:34:26;;;;;;;;;5.00;5.00;;;;;19.18;36.95;102362.34;2053045;27;2750273;-72
2024/01/13 12:35:36;;;;;;;;;4.00;4.00;;;;;19.24;36.76;102363.88;1997346;28;2750309;-71
2024/01/13 12:36:47;;;;;;;;;2.33;2.33;;;;;19.28;36.93;102362.81;2042119;28;2754439;-72
2024/01/13 12:37:58;;;;;;;;;4.00;4.00;;;;;19.33;36.66;102357.28;2034599;27;2741916;-73
2024/01/13 12:39:10;;;;;;;;;3.00;3.00;;;;;19.36;36.55;102359.78;2048382;27;2729440;-73
2024/01/13 12:40:24;;;;;;;;;2.67;2.67;;;;;19.41;36.64;102354.28;2028369;27;2739839;-73
2024/01/13 12:41:38;;;;;;;;;9.67;9.67;;;;;19.45;35.71;102353.19;2025140;27;2746182;-73
2024/01/13 12:42:49;;;;;;;;;7.33;7.33;;;;;19.48;35.53;102344.19;2001082;28;2739931;-73
2024/01/13 12:44:03;;;;;;;;;7.00;7.00;;;;;19.51;35.92;102342.22;2030391;28;2740902;-74
2024/01/13 12:45:15;;;;;;;;;4.33;4.33;;;;;19.53;35.47;102342.19;2023315;28;2754479;-75
2024/01/13 12:46:28;;;;;;;;;4.33;4.33;;;;;19.55;35.67;102333.19;2046562;28;2746227;-75
2024/01/13 12:47:42;;;;;;;;;5.17;4.83;;;;;19.60;35.52;102335.63;2024674;27;2738249;-76
2024/01/13 12:48:54;;;;;;;;;5.00;5.00;;;;;19.65;35.78;102343.41;1999349;27;2740395;-73
2024/01/13 12:50:09;;;;;;;;;4.00;4.00;;;;;19.69;35.90;102339.66;2022622;28;2754467;-73
2024/01/13 12:51:20;;;;;;;;;3.00;3.00;;;;;19.73;35.68;102329.72;2025138;27;2738135;-72
2024/01/13 12:52:33;;;;;;;;;3.33;3.33;;;;;19.77;35.42;102329.50;2048761;28;2733629;-73
2024/01/13 12:53:47;;;;;;;;;3.00;3.00;;;;;19.82;35.50;102333.75;2025593;28;2735738;-73
2024/01/13 12:55:00;;;;;;;;;6.50;6.50;;;;;19.85;35.24;102333.59;2013779;28;2739873;-74
2024/01/13 12:56:10;;;;;;;;;4.67;4.67;;;;;19.88;35.12;102325.44;2006024;27;2745580;-71
2024/01/13 12:57:21;;;;;;;;;4.33;4.33;;;;;19.89;34.85;102322.72;2031108;28;2750266;-72
2024/01/13 12:58:33;;;;;;;;;4.00;4.00;;;;;19.91;35.00;102306.63;2037278;27;2752413;-73
2024/01/13 12:59:45;;;;;;;;;5.25;5.25;;;;;19.93;34.93;102310.06;2038765;28;1818006;-72
2024/01/13 13:00:55;;;;;;;;;10.00;10.00;;;;;19.92;34.05;102316.38;2020647;28;2777371;-72
2024/01/13 13:02:07;;;;;;;;;6.33;6.00;;;;;19.91;34.53;102322.63;2040334;28;3458650;-74
2024/01/13 13:03:17;;;;;;;;;5.00;4.33;;;;;19.90;34.52;102320.91;2024346;28;2752410;-74
2024/01/13 13:04:28;;;;;;;;;5.00;5.00;;;;;19.90;34.39;102312.91;2038638;28;2745181;-74
2024/01/13 13:05:39;;;;;;;;;7.00;5.00;;;;;19.91;34.43;102311.97;2049948;28;2746105;-75
2024/01/13 13:06:50;;;;;;;;;4.00;4.00;;;;;19.93;34.65;102309.25;2009513;27;2752359;-74
2024/01/13 13:08:00;;;;;;;;;2.33;2.33;;;;;19.94;34.71;102298.47;2041124;27;2739886;-74
2024/01/13 13:09:12;;;;;;;;;5.00;5.00;;;;;19.95;34.50;102302.84;2042583;27;2746158;-74
2024/01/13 13:10:22;;;;;;;;;5.67;4.33;;;;;19.98;34.37;102300.06;2031517;27;2749334;-71
2024/01/13 13:11:33;;;;;;;;;3.00;3.00;;;;;19.99;34.39;102304.47;2041737;28;2737769;-70
2024/01/13 13:12:49;;;;;;;;;5.00;4.00;;;;;20.02;34.32;102303.44;2039858;27;2750397;-70
2024/01/13 16:45:34;;;;;;;;;37.86;33.86;;;;;12.42;35.82;102215.28;2004574;27;1870182;-74
2024/01/13 16:46:44;;;;;;;;;41.50;38.00;;;;;11.60;36.70;102219.09;2022456;28;2830471;-74
2024/01/13 16:47:56;;;;;;;;;38.00;34.67;;;;;10.84;37.66;102211.19;2037679;27;3594061;-75
2024/01/13 16:49:09;;;;;;;;;38.40;34.60;;;;;10.13;38.39;102208.28;2031636;28;3586676;-74
2024/01/13 16:50:20;;;;;;;;;42.50;35.50;;;;;9.48;38.07;102217.41;1991137;28;2854511;-74
2024/01/13 16:51:33;;;;;;;;;39.00;34.40;;;;;8.88;39.38;102217.59;2008875;27;3581467;-74
2024/01/13 16:52:45;;;;;;;;;43.33;34.00;;;;;8.32;39.96;102214.09;1983906;28;3606461;-74
2024/01/13 16:53:57;;;;;;;;;47.60;39.80;;;;;7.86;40.56;102218.41;1997613;28;3612722;-75
2024/01/13 16:55:10;;;;;;;;;46.29;39.86;;;;;7.44;41.42;102210.44;2006781;28;3612778;-74
2024/01/13 16:56:23;;;;;;;;;47.00;40.20;;;;;7.03;41.82;102210.25;2011348;28;3606504;-74
2024/01/13 16:57:35;;;;;;;;;50.67;42.67;;;;;6.65;42.11;102211.75;1991127;28;3598136;-74
2024/01/13 16:58:46;;;;;;;;;42.67;37.33;;;;;6.33;42.77;102214.97;1998228;28;3599209;-74
2024/01/13 16:59:58;;;;;;;;;41.60;37.60;;;;;6.01;43.54;102216.38;2011194;28;3606307;-74
2024/01/13 17:01:10;;;;;;;;;41.20;36.40;;;;;5.72;44.01;102213.50;2008975;28;3604787;-75
2024/01/13 17:02:22;;;;;;;;;38.80;35.40;;;;;5.48;44.40;102227.13;2013775;28;3571022;-74
2024/01/13 17:03:34;;;;;;;;;46.20;38.60;;;;;5.26;44.96;102226.84;2036732;28;3595015;-75
2024/01/13 17:04:46;;;;;;;;;48.60;37.60;;;;;5.03;45.52;102225.66;2005968;28;3603372;-75
2024/01/13 17:05:59;;;;;;;;;42.00;33.00;;;;;4.84;45.61;102224.47;2001085;28;3614846;-75
2024/01/13 17:07:12;;;;;;;;;47.67;36.67;;;;;4.66;46.03;102231.19;2012066;28;3577314;-75
2024/01/13 17:08:22;;;;;;;;;43.50;37.00;;;;;4.50;46.02;102225.72;2015942;28;2851318;-75
2024/01/13 17:09:34;;;;;;;;;51.33;37.67;;;;;4.34;46.89;102224.59;2011837;28;3606441;-75
2024/01/13 17:10:47;;;;;;;;;45.67;37.00;;;;;4.20;46.43;102226.94;2010470;28;3581485;-75
2024/01/13 17:11:59;;;;;;;;;49.67;38.00;;;;;4.07;47.00;102232.78;2014014;28;3597134;-75
2024/01/13 17:13:10;;;;;;;;;53.60;40.40;;;;;3.81;49.24;102227.09;2017637;28;2872173;-75
2024/01/13 17:14:22;;;;;;;;;50.67;40.67;;;;;3.57;48.00;102224.91;2031453;28;3593953;-75
2024/01/13 17:15:34;;;;;;;;;53.00;38.33;;;;;3.40;48.85;102227.16;2006968;28;3611140;-75
2024/01/13 17:16:46;;;;;;;;;47.67;36.00;;;;;3.22;48.88;102231.97;1991771;28;3581544;-75
2024/01/13 17:17:58;;;;;;;;;53.00;39.67;;;;;3.07;48.21;102229.91;2034540;27;3609700;-75
2024/01/13 17:19:10;;;;;;;;;48.60;38.20;;;;;2.97;48.02;102227.94;2019624;27;3601269;-75
2024/01/13 17:20:23;;;;;;;;;46.20;38.60;;;;;2.88;50.17;102220.81;2011782;28;3596017;-75
2024/01/13 17:21:34;;;;;;;;;52.00;40.00;;;;;2.80;49.79;102218.91;1990661;28;3600757;-74
2024/01/13 17:22:48;;;;;;;;;48.80;38.20;;;;;2.74;50.60;102217.91;2010367;27;3592893;-75
2024/01/13 17:23:58;;;;;;;;;45.00;37.00;;;;;2.69;50.12;102223.00;2020743;27;2852859;-75
2024/01/13 17:25:11;;;;;;;;;55.33;41.00;;;;;2.64;50.81;102220.25;2012834;28;3606508;-75
2024/01/13 17:26:21;;;;;;;;;49.00;37.50;;;;;2.58;51.05;102213.22;2015012;28;2848185;-75
2024/01/13 17:27:33;;;;;;;;;35.67;35.00;;;;;2.54;51.48;102220.91;2004405;28;3615243;-75
2024/01/13 17:28:46;;;;;;;;;46.29;37.86;;;;;2.50;51.48;102219.03;2006629;28;3590855;-75
2024/01/13 17:29:58;;;;;;;;;51.00;36.00;;;;;2.46;51.30;102220.69;2006259;28;3606550;-75
2024/01/13 17:31:10;;;;;;;;;51.67;38.00;;;;;2.41;52.21;102217.09;2000464;28;3615872;-75
2024/01/13 17:32:22;;;;;;;;;62.40;45.20;;;;;2.36;51.52;102214.41;1993674;28;3630497;-75
2024/01/13 17:33:35;;;;;;;;;47.29;38.71;;;;;2.34;52.11;102216.97;2009724;28;3594992;-75
2024/01/13 17:34:47;;;;;;;;;44.00;34.67;;;;;2.30;51.81;102222.00;2002338;28;3607526;-75
2024/01/13 17:35:59;;;;;;;;;53.40;44.40;;;;;2.24;52.09;102212.38;2011462;27;3580440;-75
2024/01/13 17:37:11;;;;;;;;;53.80;40.40;;;;;2.18;52.89;102214.78;2020305;28;3621059;-75
2024/01/13 17:38:22;;;;;;;;;46.20;36.20;;;;;2.06;52.98;102205.84;1989630;28;2875377;-74
2024/01/13 17:39:34;;;;;;;;;48.67;39.33;;;;;2.01;52.93;102202.25;2010201;28;3600235;-74
2024/01/13 17:40:46;;;;;;;;;48.33;38.67;;;;;1.99;53.46;102201.34;2002364;28;3586701;-74
2024/01/13 17:41:58;;;;;;;;;44.33;37.00;;;;;1.99;53.18;102204.81;2013335;28;3579426;-74
2024/01/13 17:43:10;;;;;;;;;41.80;31.80;;;;;1.98;53.47;102196.97;2033796;28;3612687;-74
2024/01/13 17:44:22;;;;;;;;;40.00;34.60;;;;;1.99;52.85;102202.22;2007705;28;3580542;-74
2024/01/13 17:45:34;;;;;;;;;45.60;36.00;;;;;1.97;53.48;102201.31;2035344;27;3578312;-74
2024/01/13 17:46:45;;;;;;;;;42.00;34.40;;;;;1.98;53.35;102212.53;2029728;28;3593930;-74
2024/01/13 17:47:58;;;;;;;;;46.00;37.67;;;;;1.96;53.69;102196.94;2036842;27;3578373;-74
2024/01/13 17:49:09;;;;;;;;;41.00;28.50;;;;;1.96;53.81;102209.91;2022151;28;2859692;-75
2024/01/13 17:50:21;;;;;;;;;48.00;38.67;;;;;1.93;53.50;102202.03;1995375;27;3597133;-75
2024/01/13 17:51:33;;;;;;;;;52.00;40.67;;;;;1.92;53.86;102205.50;2036109;27;3591921;-74
2024/01/13 17:52:44;;;;;;;;;56.00;39.40;;;;;1.91;53.61;102201.13;2000339;28;2881553;-74
2024/01/13 17:53:56;;;;;;;;;68.33;46.67;;;;;1.90;53.71;102199.41;2038495;27;3641955;-75
2024/01/13 17:55:10;;;;;;;;;56.00;40.86;;;;;1.88;53.81;102198.44;2022635;27;3599185;-74
2024/01/13 17:56:21;;;;;;;;;47.00;36.00;;;;;1.90;53.95;102199.41;1995811;28;3626291;-75
2024/01/13 17:57:33;;;;;;;;;67.33;54.00;;;;;1.91;54.36;102198.53;1999185;28;3610713;-75
2024/01/13 17:58:45;;;;;;;;;77.33;55.00;;;;;1.89;54.01;102201.09;2001717;28;3635629;-75
2024/01/13 17:59:56;;;;;;;;;61.00;44.40;;;;;1.90;53.76;102207.19;1995442;28;2882623;-75
2024/01/13 18:01:08;;;;;;;;;54.33;45.00;;;;;1.92;54.58;102202.91;2033060;28;3592923;-75
2024/01/13 18:02:20;;;;;;;;;51.00;42.33;;;;;1.92;54.42;102200.31;2029775;28;3590879;-75
2024/01/13 18:03:32;;;;;;;;;55.33;41.00;;;;;1.91;54.67;102195.94;2030229;28;3596093;-75
2024/01/13 18:04:44;;;;;;;;;49.00;39.00;;;;;1.91;54.76;102190.75;2033715;28;3601259;-75
2024/01/13 18:05:56;;;;;;;;;54.00;37.67;;;;;1.91;55.04;102190.75;2016954;28;3613764;-75
2024/01/13 18:07:08;;;;;;;;;57.00;41.33;;;;;1.89;54.97;102188.13;2013968;28;3603364;-75
2024/01/13 18:08:20;;;;;;;;;48.80;37.40;;;;;1.91;54.67;102190.75;2008585;28;3614785;-75
2024/01/13 18:09:34;;;;;;;;;46.14;36.43;;;;;1.90;54.56;102183.84;2009194;28;3613799;-75
2024/01/13 18:10:46;;;;;;;;;54.67;43.33;;;;;1.86;54.59;102182.84;1991879;28;3598163;-75
2024/01/13 18:11:59;;;;;;;;;48.57;39.71;;;;;1.80;54.61;102188.75;2007674;28;3590867;-75
2024/01/13 18:13:11;;;;;;;;;58.33;45.67;;;;;1.75;54.52;102179.13;1993091;28;3600315;-75
2024/01/13 18:14:23;;;;;;;;;45.33;37.33;;;;;1.75;54.75;102181.69;2027317;28;3565850;-75
2024/01/13 18:15:36;;;;;;;;;54.29;43.00;;;;;1.74;55.10;102182.53;2028126;28;3607562;-74
2024/01/13 18:16:49;;;;;;;;;51.71;39.71;;;;;1.74;54.73;102180.81;2009833;28;3609656;-74
2024/01/13 18:18:02;;;;;;;;;52.00;42.33;;;;;1.74;55.08;102177.34;2004254;28;3595035;-74
2024/01/13 18:19:14;;;;;;;;;52.67;41.00;;;;;1.74;55.73;102178.22;1991680;28;3600258;-74
2024/01/13 18:20:26;;;;;;;;;53.33;41.33;;;;;1.76;55.24;102180.84;2007750;28;3604426;-74
2024/01/13 18:21:38;;;;;;;;;54.33;43.00;;;;;1.75;55.28;102174.81;2029588;28;3609641;-74
2024/01/13 18:22:50;;;;;;;;;56.00;43.00;;;;;1.75;55.42;102173.91;2007440;28;3605428;-74
2024/01/13 18:24:02;;;;;;;;;54.00;41.40;;;;;1.74;55.75;102175.63;2000141;28;3615816;-74
2024/01/13 18:25:14;;;;;;;;;49.20;38.00;;;;;1.76;55.82;102173.06;2010663;28;3601284;-74
2024/01/13 18:26:26;;;;;;;;;56.33;39.67;;;;;1.76;56.06;102166.19;2004152;28;3621099;-74
2024/01/13 18:27:38;;;;;;;;;55.00;42.00;;;;;1.77;55.93;102177.44;2000837;28;3615879;-74
2024/01/13 18:28:50;;;;;;;;;56.67;43.33;;;;;1.77;56.23;102173.13;2000786;28;3605461;-74
2024/01/13 18:30:03;;;;;;;;;56.29;43.14;;;;;1.77;55.95;102162.75;2032891;28;3596049;-74
2024/01/13 18:31:14;;;;;;;;;55.00;43.00;;;;;1.78;56.15;102164.50;1994273;28;3601276;-74
2024/01/13 18:32:27;;;;;;;;;55.33;42.67;;;;;1.78;55.57;102155.84;2011618;28;3609652;-74
2024/01/13 18:33:39;;;;;;;;;54.67;45.67;;;;;1.78;56.20;102159.31;1993629;28;3603423;-74
2024/01/13 18:34:51;;;;;;;;;62.00;46.00;;;;;1.79;56.50;102161.09;2001199;28;3625282;-74
2024/01/13 18:36:03;;;;;;;;;56.00;42.00;;;;;1.80;55.95;102162.81;2008534;28;3615863;-74
2024/01/13 18:37:16;;;;;;;;;56.33;44.67;;;;;1.81;56.44;102166.28;1998392;28;3611732;-74
2024/01/13 18:38:27;;;;;;;;;53.33;41.00;;;;;1.81;56.71;102163.69;1991224;28;3579391;-74
2024/01/13 18:39:39;;;;;;;;;56.33;43.67;;;;;1.81;55.98;102166.28;2031571;28;3613772;-74
2024/01/13 18:40:53;;;;;;;;;58.57;46.43;;;;;1.80;56.48;102156.78;2008715;28;3584646;-74
2024/01/13 18:42:05;;;;;;;;;59.00;46.00;;;;;1.82;56.42;102162.88;1993489;28;3625240;-74
2024/01/13 18:43:17;;;;;;;;;53.00;41.33;;;;;1.82;56.67;102162.88;2002862;28;3601288;-74
2024/01/13 18:44:29;;;;;;;;;50.20;41.80;;;;;1.81;56.33;102148.16;2037448;28;3591191;-74
2024/01/13 18:45:41;;;;;;;;;55.33;45.33;;;;;1.79;56.73;102145.53;2032735;28;3605451;-74
2024/01/13 18:46:53;;;;;;;;;51.40;43.40;;;;;1.78;56.81;102148.94;2027425;28;3601228;-74
2024/01/13 18:48:05;;;;;;;;;56.33;41.33;;;;;1.80;56.63;102152.44;1995725;28;3618987;-74
2024/01/13 18:49:17;;;;;;;;;53.00;41.33;;;;;1.80;56.52;102146.41;1997531;28;3608636;-74
2024/01/13 18:50:30;;;;;;;;;61.71;48.00;;;;;1.80;56.77;102147.25;1997259;28;3601295;-74
2024/01/13 18:51:42;;;;;;;;;54.00;40.00;;;;;1.82;56.54;102138.66;1992584;28;3602338;-74
2024/01/13 18:52:54;;;;;;;;;61.00;47.00;;;;;1.83;56.18;102146.47;2031892;28;3606488;-74
2024/01/13 18:54:07;;;;;;;;;56.60;48.20;;;;;1.82;56.40;102128.28;2005473;28;3603313;-74
2024/01/13 18:55:18;;;;;;;;;71.67;50.00;;;;;1.83;56.95;102127.47;1989450;28;3654415;-74
2024/01/13 18:56:31;;;;;;;;;58.67;45.33;;;;;1.83;56.83;102130.91;2008640;28;3608580;-74
2024/01/13 18:57:43;;;;;;;;;62.00;46.67;;;;;1.83;56.56;102135.25;1990965;28;3616895;-74
2024/01/13 18:58:58;;;;;;;;;63.00;48.00;;;;;1.83;56.74;102130.06;1999820;28;3616897;-74
2024/01/13 19:00:13;;;;;;;;;57.67;48.00;;;;;1.83;56.98;102133.50;1984539;28;3610733;-74
2024/01/13 19:01:26;;;;;;;;;61.00;49.67;;;;;1.84;56.76;102126.59;1988369;28;3618969;-74
2024/01/13 19:02:38;;;;;;;;;69.33;53.00;;;;;1.84;57.42;102116.25;1991991;28;3635676;-74
2024/01/13 19:03:49;;;;;;;;;56.67;42.33;;;;;1.84;56.48;102124.00;2007184;28;3630839;-74
2024/01/13 19:05:04;;;;;;;;;69.71;53.14;;;;;1.82;57.34;102112.72;2009544;28;3629397;-74
2024/01/13 19:06:18;;;;;;;;;68.67;51.00;;;;;1.84;56.60;102113.66;1991533;28;3641897;-74
2024/01/13 19:07:29;;;;;;;;;63.67;50.00;;;;;1.83;57.13;102111.91;1992258;28;3627356;-74
2024/01/13 19:08:41;;;;;;;;;62.00;48.67;;;;;1.84;57.29;102111.06;2005867;28;3623170;-74
2024/01/13 19:09:55;;;;;;;;;68.13;51.38;;;;;1.84;57.20;102105.88;2009915;28;3634593;-74
2024/01/13 19:11:06;;;;;;;;;59.67;49.67;;;;;1.83;57.10;102110.16;2014602;28;3621048;-74
2024/01/13 19:12:18;;;;;;;;;59.67;46.67;;;;;1.83;57.13;102104.97;2007385;28;3606515;-74
2024/01/13 19:13:30;;;;;;;;;65.80;49.20;;;;;1.82;57.33;102112.72;1994651;28;2886806;-74
2024/01/13 19:14:41;;;;;;;;;53.00;42.33;;;;;1.80;57.08;102105.78;2015302;28;3597475;-74
2024/01/13 19:15:54;;;;;;;;;64.43;47.71;;;;;1.80;56.55;102110.09;2032504;28;3622105;-74
2024/01/13 19:17:08;;;;;;;;;73.80;53.00;;;;;1.78;56.79;102101.38;1995304;28;2895148;-74
2024/01/13 19:18:19;;;;;;;;;70.00;53.00;;;;;1.78;56.63;102104.88;2016162;28;3624196;-74
2024/01/13 19:19:32;;;;;;;;;67.00;48.25;;;;;1.78;57.14;102107.47;2001686;28;3650252;-74
2024/01/13 19:20:43;;;;;;;;;68.00;50.67;;;;;1.79;57.14;102103.16;2014965;28;3627304;-74
2024/01/13 19:21:57;;;;;;;;;60.67;49.33;;;;;1.78;57.64;102104.88;2007105;28;3621100;-74
2024/01/13 19:23:08;;;;;;;;;65.00;50.33;;;;;1.79;57.82;102103.16;1992062;28;3627325;-74
2024/01/13 19:24:24;;;;;;;;;66.00;49.50;;;;;1.79;57.11;102096.25;2009458;28;3651223;-74
2024/01/13 19:25:35;;;;;;;;;64.67;48.00;;;;;1.79;57.33;102092.78;2015473;28;3627310;-74
2024/01/13 19:26:46;;;;;;;;;60.80;47.80;;;;;1.80;57.03;102100.59;1996275;28;2875228;-74
2024/01/13 19:27:58;;;;;;;;;62.67;49.67;;;;;1.79;57.90;102093.66;2029601;28;3617955;-74
2024/01/13 19:29:10;;;;;;;;;66.33;51.67;;;;;1.79;57.31;102093.66;2006447;28;3622144;-74
2024/01/13 19:30:24;;;;;;;;;67.00;49.67;;;;;1.80;57.71;102091.97;2006267;28;3622142;-74
2024/01/13 19:31:36;;;;;;;;;62.00;49.00;;;;;1.76;57.25;102088.41;1992592;28;3606487;-74
2024/01/13 19:32:49;;;;;;;;;62.14;49.00;;;;;1.75;57.45;102091.84;2009347;28;3611757;-74
2024/01/13 19:34:01;;;;;;;;;65.00;50.67;;;;;1.76;56.98;102088.41;2008069;28;3609610;-74
2024/01/13 19:35:14;;;;;;;;;63.67;46.00;;;;;1.76;57.56;102087.50;1993017;28;3615859;-74
2024/01/13 19:36:25;;;;;;;;;68.67;51.33;;;;;1.76;57.69;102091.00;1990877;28;3640878;-74
2024/01/13 19:37:39;;;;;;;;;57.33;44.33;;;;;1.77;57.65;102084.09;2008618;28;3600236;-74
2024/01/13 19:38:52;;;;;;;;;66.33;49.33;;;;;1.76;57.44;102083.22;2015808;28;3633575;-74
2024/01/13 19:40:05;;;;;;;;;62.67;49.67;;;;;1.77;57.10;102084.09;1992911;28;3625278;-74
2024/01/13 19:41:17;;;;;;;;;67.00;51.00;;;;;1.77;56.76;102081.50;1992948;28;3640898;-74
2024/01/13 19:42:28;;;;;;;;;63.33;49.67;;;;;1.77;56.99;102078.91;1996311;28;3616975;-74
2024/01/13 19:43:39;;;;;;;;;61.60;45.00;;;;;1.76;57.44;102078.03;1994264;28;2881458;-74
2024/01/13 19:44:50;;;;;;;;;65.60;48.80;;;;;1.76;58.11;102082.31;2017876;28;2883693;-74
2024/01/13 19:46:02;;;;;;;;;61.33;42.00;;;;;1.74;57.51;102079.72;2033216;28;3598162;-74
2024/01/13 19:47:15;;;;;;;;;65.67;48.67;;;;;1.74;57.88;102081.41;1994106;28;3611691;-74
2024/01/13 19:48:27;;;;;;;;;64.00;47.00;;;;;1.74;57.42;102081.41;1993268;28;3633551;-74
2024/01/13 19:49:39;;;;;;;;;65.00;52.00;;;;;1.74;57.47;102082.31;1998734;28;3611681;-74
2024/01/13 19:50:51;;;;;;;;;64.67;48.67;;;;;1.72;57.69;102081.38;2031060;28;3632927;-74
2024/01/13 19:52:03;;;;;;;;;61.00;45.00;;;;;1.72;58.12;102078.78;2000664;28;3603370;-74
2024/01/13 19:53:15;;;;;;;;;59.33;48.67;;;;;1.70;57.81;102080.47;1999914;28;3590884;-74
2024/01/13 19:54:27;;;;;;;;;63.67;48.00;;;;;1.70;58.39;102082.19;2019756;28;3623139;-74
2024/01/13 19:55:38;;;;;;;;;65.40;51.80;;;;;1.68;57.62;102082.13;1995686;28;2877292;-74
2024/01/13 19:56:49;;;;;;;;;67.00;47.60;;;;;1.67;57.64;102082.97;2018713;28;2885714;-74
2024/01/13 19:58:01;;;;;;;;;61.00;49.00;;;;;1.67;57.94;102080.38;2033780;28;3625198;-74
2024/01/13 19:59:14;;;;;;;;;60.43;47.57;;;;;1.67;58.31;102080.38;2010086;28;3624176;-74
2024/01/13 20:00:26;;;;;;;;;68.33;52.67;;;;;1.65;57.69;102079.47;2007226;28;3617983;-74
2024/01/13 20:01:37;;;;;;;;;66.00;52.00;;;;;1.66;58.50;102081.22;1994550;28;2878338;-74
2024/01/13 20:02:49;;;;;;;;;70.33;51.33;;;;;1.66;58.29;102076.03;2033333;28;3651254;-74
2024/01/13 20:04:03;;;;;;;;;70.40;53.00;;;;;1.65;57.80;102075.19;1996389;28;2895205;-74
2024/01/13 20:05:15;;;;;;;;;65.67;48.33;;;;;1.64;57.69;102073.41;2015982;28;3635618;-74
2024/01/13 20:06:27;;;;;;;;;63.67;49.33;;;;;1.65;57.91;102076.88;2004443;28;3623622;-74
2024/01/13 20:07:38;;;;;;;;;61.33;47.33;;;;;1.64;57.91;102068.22;1997869;28;3614825;-74
2024/01/13 20:08:49;;;;;;;;;58.00;41.00;;;;;1.63;58.18;102066.44;1993789;28;2886746;-74
2024/01/13 20:10:05;;;;;;;;;69.33;52.00;;;;;1.62;58.41;102069.91;2031981;28;3629374;-74
2024/01/13 20:11:16;;;;;;;;;65.00;48.67;;;;;1.61;57.90;102068.13;1991890;28;3603316;-74
2024/01/13 20:12:28;;;;;;;;;67.00;47.33;;;;;1.62;58.68;102071.59;2007488;28;3637038;-74
2024/01/13 20:13:41;;;;;;;;;59.57;45.00;;;;;1.61;57.99;102067.25;2009343;28;3625257;-74
2024/01/13 20:14:53;;;;;;;;;63.60;48.60;;;;;1.61;57.99;102065.53;1995270;28;2887883;-74
2024/01/13 20:16:05;;;;;;;;;66.33;53.00;;;;;1.60;58.33;102068.09;2013496;28;3608521;-74
2024/01/13 20:17:16;;;;;;;;;60.33;47.67;;;;;1.59;57.88;102068.94;1995131;28;3605443;-74
2024/01/13 20:18:27;;;;;;;;;65.40;48.00;;;;;1.58;58.12;102060.31;1993530;28;2881463;-74
2024/01/13 20:19:39;;;;;;;;;69.80;51.00;;;;;1.59;58.13;102071.53;2017126;28;2884702;-74
2024/01/13 20:20:51;;;;;;;;;63.00;49.33;;;;;1.59;58.45;102066.34;2024978;28;3625198;-74
2024/01/13 20:22:04;;;;;;;;;62.33;50.33;;;;;1.57;58.47;102067.19;2006090;28;3616910;-74
2024/01/13 20:23:15;;;;;;;;;58.33;45.67;;;;;1.59;57.73;102066.34;1990482;28;3602315;-74
2024/01/13 20:24:28;;;;;;;;;63.43;49.00;;;;;1.59;58.17;102068.94;2007211;28;3631499;-74
2024/01/13 20:25:40;;;;;;;;;64.40;47.00;;;;;1.60;58.46;102069.00;2006873;28;3639781;-75
2024/01/13 20:26:52;;;;;;;;;63.67;48.33;;;;;1.60;57.78;102062.91;2006672;28;3625270;-74
2024/01/13 20:28:05;;;;;;;;;61.29;45.86;;;;;1.60;58.88;102066.41;2009370;28;3611678;-75
2024/01/13 20:29:18;;;;;;;;;56.67;46.33;;;;;1.59;58.39;102056.84;2007785;28;3608564;-74
2024/01/13 20:30:30;;;;;;;;;67.67;52.00;;;;;1.60;58.34;102060.31;1983773;28;3620030;-75
2024/01/13 20:31:42;;;;;;;;;64.00;46.67;;;;;1.59;58.28;102053.38;2001499;28;3622141;-74
2024/01/13 20:32:54;;;;;;;;;63.67;49.67;;;;;1.57;58.47;102056.81;2002120;28;3618980;-74
2024/01/13 20:34:07;;;;;;;;;64.00;46.67;;;;;1.57;58.16;102056.81;2001497;28;3628382;-74
2024/01/13 20:35:17;;;;;;;;;56.50;46.00;;;;;1.56;58.40;102049.00;1992679;28;2866951;-74
2024/01/13 20:36:29;;;;;;;;;63.00;50.00;;;;;1.56;58.22;102049.88;1998175;28;3617899;-74
2024/01/13 20:37:41;;;;;;;;;62.20;47.40;;;;;1.57;58.66;102045.56;1990848;28;2875213;-74